Overview Statistics Trail Chart Weather Telemetry Raw packets
 

This is the latest recevied weather packets stored in our database for station/object VK4CWL-13. If no packets are shown the sender has not sent any weather packets the latest 10 day(s).

<< 28 29 30 31 32 33 34 >>
Time Temp. Humidity Pressure Rain* Wind** Luminosity Snow
1788480568 26.67° C 32% 1022.4 hPa 0 mm - - -
1788480266 26.67° C 32% 1022.4 hPa 0 mm - - -
1788479962 26.11° C 32% 1022.4 hPa 0 mm - - -
1788479661 26.11° C 32% 1022.4 hPa 0 mm - - -
1788479358 26.11° C 35% 1022.5 hPa 0 mm - - -
1788479057 26.11° C 35% 1022.5 hPa 0 mm - - -
1788478755 25.56° C 37% 1022.7 hPa 0 mm - - -
1788478451 25.56° C 37% 1022.7 hPa 0 mm - - -
1788478173 25.56° C 37% 1022.8 hPa 0 mm - - -
1788477846 25.56° C 37% 1022.7 hPa 0 mm - - -
1788477544 25° C 38% 1022.8 hPa 0 mm - - -
1788477240 25° C 39% 1023 hPa 0 mm - - -
1788476939 24.44° C 41% 1023 hPa 0 mm - - -
1788476335 23.89° C 38% 1022.9 hPa 0 mm - - -
1788476033 23.33° C 42% 1023 hPa 0 mm - - -
1788475729 22.78° C 44% 1023 hPa 0 mm - - -
1788475427 22.22° C 45% 1023 hPa 0 mm - - -
1788475124 22.22° C 47% 1023.2 hPa 0 mm - - -
1788474822 21.67° C 47% 1023.1 hPa 0 mm - - -
1788474519 21.11° C 48% 1023 hPa 0 mm - - -
1788474219 20.56° C 49% 1022.9 hPa 0 mm - - -
1788473918 20° C 50% 1022.9 hPa 0 mm - - -
1788473613 19.44° C 51% 1022.9 hPa 0 mm - - -
1788473312 19.44° C 54% 1023 hPa 0 mm - - -
1788473009 18.33° C 55% 1023 hPa 0 mm - - -

* Rain since midnight (hover to see other rain measurements)
** Current wind speed in m/s (hover to see current wind gust speed)